createdAt,value
2023-02-19T00:03:15.592Z,0.18
2023-02-19T00:08:18.467Z,0.14
2023-02-19T00:13:21.371Z,0.09
2023-02-19T00:18:24.684Z,0.05
2023-02-19T00:23:28.305Z,0.01
2023-02-19T00:28:31.214Z,-0.05
2023-02-19T00:33:34.216Z,-0.08
2023-02-19T00:38:38.962Z,-0.14
2023-02-19T00:43:41.764Z,-0.23
2023-02-19T00:48:44.981Z,-0.32
2023-02-19T00:53:47.980Z,-0.43
2023-02-19T00:58:51.009Z,-0.54
2023-02-19T01:03:54.101Z,-0.61
2023-02-19T01:08:56.998Z,-0.65
2023-02-19T01:14:01.182Z,-0.71
2023-02-19T01:19:04.243Z,-0.72
2023-02-19T01:24:07.242Z,-0.63
2023-02-19T01:29:10.515Z,-0.57
2023-02-19T01:34:13.353Z,-0.59
2023-02-19T01:39:16.265Z,-0.62
2023-02-19T01:44:19.573Z,-0.66
2023-02-19T01:49:26.267Z,-0.70
2023-02-19T01:54:36.215Z,-0.68
2023-02-19T01:59:40.020Z,-0.62
2023-02-19T02:04:43.169Z,-0.49
2023-02-19T02:10:04.708Z,-0.33
2023-02-19T02:15:08.226Z,-0.23
2023-02-19T02:20:35.710Z,-0.15
2023-02-19T02:26:08.415Z,-0.09
2023-02-19T02:31:16.755Z,-0.03
2023-02-19T02:36:29.100Z,0.07
2023-02-19T02:41:33.617Z,0.16
2023-02-19T02:46:40.538Z,0.26
2023-02-19T02:51:53.138Z,0.34
2023-02-19T02:56:58.190Z,0.44
2023-02-19T03:02:12.136Z,0.53
2023-02-19T03:07:15.477Z,0.56
2023-02-19T03:12:39.465Z,0.61
2023-02-19T03:18:11.459Z,0.62
2023-02-19T03:23:17.632Z,0.65
2023-02-19T03:28:42.966Z,0.66
2023-02-19T03:33:50.576Z,0.66
2023-02-19T03:39:00.973Z,0.66
2023-02-19T03:44:16.863Z,0.67
2023-02-19T03:49:56.946Z,0.67
2023-02-19T03:55:02.812Z,0.71
2023-02-19T04:00:21.072Z,0.70
2023-02-19T04:05:28.176Z,0.71
2023-02-19T04:10:32.181Z,0.75
2023-02-19T04:15:40.491Z,0.76
2023-02-19T04:20:46.309Z,0.79
2023-02-19T04:25:53.624Z,0.77
2023-02-19T04:30:56.545Z,0.75
2023-02-19T04:35:59.423Z,0.75
2023-02-19T04:41:02.227Z,0.71
2023-02-19T04:46:05.371Z,0.69
2023-02-19T04:51:09.517Z,0.63
2023-02-19T04:56:16.152Z,0.61
2023-02-19T05:01:19.308Z,0.54
2023-02-19T05:06:22.164Z,0.47
2023-02-19T05:11:25.067Z,0.44
2023-02-19T05:16:28.074Z,0.40
2023-02-19T05:21:31.094Z,0.36
2023-02-19T05:26:34.534Z,0.34
2023-02-19T05:31:37.489Z,0.32
2023-02-19T05:36:40.607Z,0.29
2023-02-19T05:41:43.513Z,0.24
2023-02-19T05:46:46.346Z,0.22
2023-02-19T05:51:52.492Z,0.24
2023-02-19T05:56:55.804Z,0.23
2023-02-19T06:01:58.606Z,0.29
2023-02-19T06:07:01.408Z,0.36
2023-02-19T06:12:04.618Z,0.44
2023-02-19T06:17:07.301Z,0.48
2023-02-19T06:22:10.536Z,0.54
2023-02-19T06:27:13.330Z,0.61
2023-02-19T06:32:17.112Z,0.66
2023-02-19T06:37:20.062Z,0.72
2023-02-19T06:42:22.982Z,0.74
2023-02-19T06:47:25.870Z,0.78
2023-02-19T06:52:28.784Z,0.83
2023-02-19T06:57:31.882Z,0.91
2023-02-19T07:02:34.683Z,1.02
2023-02-19T07:07:37.584Z,1.10
2023-02-19T07:12:40.381Z,1.18
2023-02-19T07:17:43.287Z,1.29
2023-02-19T07:22:46.315Z,1.39
2023-02-19T07:27:49.195Z,1.49
2023-02-19T07:32:52.114Z,1.60
2023-02-19T07:37:54.971Z,1.68
2023-02-19T07:42:59.702Z,1.70
2023-02-19T07:48:02.759Z,1.69
2023-02-19T07:53:06.124Z,1.74
2023-02-19T07:58:08.873Z,1.84
2023-02-19T08:03:12.307Z,1.93
2023-02-19T08:08:16.011Z,2.05
2023-02-19T08:13:19.416Z,2.06
2023-02-19T08:18:23.762Z,2.16
2023-02-19T08:23:27.946Z,2.23
2023-02-19T08:28:31.207Z,2.18
2023-02-19T08:33:34.532Z,2.12
2023-02-19T08:38:38.096Z,2.13
2023-02-19T08:43:42.022Z,2.24
2023-02-19T08:48:44.969Z,2.25
2023-02-19T08:53:47.989Z,2.17
2023-02-19T08:58:50.881Z,2.18
2023-02-19T09:03:53.706Z,2.22
2023-02-19T09:08:56.582Z,2.34
2023-02-19T09:13:59.484Z,2.54
2023-02-19T09:19:03.058Z,2.77
2023-02-19T09:24:09.722Z,3.08
2023-02-19T09:29:12.609Z,3.44
2023-02-19T09:34:15.505Z,3.65
2023-02-19T09:39:19.234Z,3.71
2023-02-19T09:44:29.607Z,3.77
2023-02-19T09:49:35.900Z,3.72
2023-02-19T09:54:40.444Z,3.66
2023-02-19T09:59:54.276Z,3.58
2023-02-19T10:04:57.756Z,3.50
2023-02-19T10:10:18.888Z,3.53
2023-02-19T10:15:38.116Z,3.54
2023-02-19T10:20:41.129Z,3.75
2023-02-19T10:25:54.580Z,3.82
2023-02-19T10:30:59.966Z,3.75
2023-02-19T10:36:16.263Z,3.73
2023-02-19T10:41:22.031Z,3.70
2023-02-19T10:46:28.834Z,3.76
2023-02-19T10:51:35.423Z,4.01
2023-02-19T10:56:40.880Z,4.19
2023-02-19T11:02:00.526Z,4.30
2023-02-19T11:07:17.405Z,4.33
2023-02-19T11:12:29.822Z,4.20
2023-02-19T11:17:33.293Z,4.07
2023-02-19T11:22:39.930Z,3.93
2023-02-19T11:28:07.388Z,3.97
2023-02-19T11:33:16.256Z,4.04
2023-02-19T11:38:20.254Z,3.99
2023-02-19T11:43:44.908Z,4.05
2023-02-19T11:49:11.673Z,4.08
2023-02-19T11:54:36.391Z,4.20
2023-02-19T11:59:59.358Z,4.17
2023-02-19T12:05:22.014Z,4.06
2023-02-19T12:10:49.710Z,4.13
2023-02-19T12:16:10.749Z,4.21
2023-02-19T12:21:35.557Z,4.44
2023-02-19T12:26:46.893Z,4.57
2023-02-19T12:32:13.518Z,4.56
2023-02-19T12:37:30.962Z,4.54
2023-02-19T12:42:50.806Z,4.37
2023-02-19T12:48:05.442Z,4.18
2023-02-19T12:53:19.206Z,4.05
2023-02-19T12:58:39.826Z,3.96
2023-02-19T13:03:52.555Z,3.90
2023-02-19T13:09:29.406Z,3.99
2023-02-19T13:15:04.214Z,4.06
2023-02-19T13:20:22.274Z,3.81
2023-02-19T13:25:46.570Z,3.63
2023-02-19T13:31:02.962Z,3.58
2023-02-19T13:36:10.708Z,3.56
2023-02-19T13:41:21.807Z,3.52
2023-02-19T13:46:25.651Z,3.36
2023-02-19T13:51:28.433Z,3.18
2023-02-19T13:56:34.492Z,3.03
2023-02-19T14:02:03.534Z,2.94
2023-02-19T14:07:06.322Z,2.87
2023-02-19T14:12:16.072Z,2.76
2023-02-19T14:17:45.967Z,2.71
2023-02-19T14:23:01.579Z,2.66
2023-02-19T14:28:10.486Z,2.66
2023-02-19T14:33:17.450Z,2.76
2023-02-19T14:38:30.512Z,2.86
2023-02-19T14:43:35.405Z,2.96
2023-02-19T14:48:43.648Z,3.00
2023-02-19T14:53:47.028Z,2.90
2023-02-19T14:59:28.011Z,2.75
2023-02-19T15:04:37.233Z,2.60
2023-02-19T15:09:45.487Z,2.47
2023-02-19T15:14:49.750Z,2.41
2023-02-19T15:19:53.181Z,2.48
2023-02-19T15:24:56.086Z,2.84
2023-02-19T15:29:58.893Z,3.16
2023-02-19T15:35:04.317Z,2.91
2023-02-19T15:40:08.395Z,2.59
2023-02-19T15:45:28.653Z,2.31
2023-02-19T15:50:37.600Z,1.99
2023-02-19T15:55:51.810Z,1.71
2023-02-19T16:00:58.539Z,1.45
2023-02-19T16:06:11.504Z,1.25
2023-02-19T16:11:23.214Z,1.07
2023-02-19T16:16:35.360Z,0.89
2023-02-19T16:21:38.794Z,0.73
2023-02-19T16:26:43.067Z,0.62
2023-02-19T16:31:55.163Z,0.55
2023-02-19T16:36:58.091Z,0.44
2023-02-19T16:42:02.233Z,0.31
2023-02-19T16:47:12.541Z,0.18
2023-02-19T16:52:17.117Z,0.03
2023-02-19T16:57:20.736Z,-0.11
2023-02-19T17:02:25.202Z,-0.20
2023-02-19T17:07:28.211Z,-0.30
2023-02-19T17:12:31.117Z,-0.43
2023-02-19T17:17:34.875Z,-0.52
2023-02-19T17:22:37.741Z,-0.59
2023-02-19T17:27:41.470Z,-0.64
2023-02-19T17:32:44.467Z,-0.73
2023-02-19T17:37:47.476Z,-0.81
2023-02-19T17:42:50.707Z,-0.80
2023-02-19T17:47:53.502Z,-0.78
2023-02-19T17:52:56.402Z,-0.75
2023-02-19T17:58:00.050Z,-0.73
2023-02-19T18:03:03.940Z,-0.68
2023-02-19T18:08:07.250Z,-0.67
2023-02-19T18:13:10.667Z,-0.62
2023-02-19T18:18:13.491Z,-0.59
2023-02-19T18:23:16.584Z,-0.55
2023-02-19T18:28:19.376Z,-0.59
2023-02-19T18:33:22.385Z,-0.63
2023-02-19T18:38:25.288Z,-0.69
2023-02-19T18:43:28.291Z,-0.68
2023-02-19T18:48:31.060Z,-0.72
2023-02-19T18:53:33.845Z,-0.73
2023-02-19T18:58:36.692Z,-0.74
2023-02-19T19:03:39.640Z,-0.74
2023-02-19T19:08:42.413Z,-0.73
2023-02-19T19:13:46.339Z,-0.69
2023-02-19T19:18:49.493Z,-0.56
2023-02-19T19:23:52.343Z,-0.56
2023-02-19T19:28:55.244Z,-0.63
2023-02-19T19:33:58.158Z,-0.67
2023-02-19T19:39:01.001Z,-0.64
2023-02-19T19:44:08.463Z,-0.51
2023-02-19T19:49:12.104Z,-0.41
2023-02-19T19:54:15.521Z,-0.34
2023-02-19T19:59:19.063Z,-0.30
2023-02-19T20:04:23.371Z,-0.25
2023-02-19T20:09:29.215Z,-0.24
2023-02-19T20:14:32.335Z,-0.24
2023-02-19T20:19:35.231Z,-0.23
2023-02-19T20:24:38.134Z,-0.18
2023-02-19T20:29:44.319Z,-0.10
2023-02-19T20:34:48.146Z,-0.03
2023-02-19T20:39:51.045Z,0.04
2023-02-19T20:44:53.846Z,0.03
2023-02-19T20:49:57.021Z,0.06
2023-02-19T20:54:59.960Z,0.11
2023-02-19T21:00:03.784Z,0.13
2023-02-19T21:05:06.996Z,0.15
2023-02-19T21:10:10.423Z,0.18
2023-02-19T21:15:14.948Z,0.21
2023-02-19T21:20:18.160Z,0.21
2023-02-19T21:25:21.166Z,0.13
2023-02-19T21:30:24.204Z,-0.07
2023-02-19T21:35:27.283Z,-0.23
2023-02-19T21:40:32.134Z,-0.34
2023-02-19T21:45:34.966Z,-0.41
2023-02-19T21:50:37.835Z,-0.42
2023-02-19T21:55:42.907Z,-0.41
2023-02-19T22:00:54.249Z,-0.42
2023-02-19T22:05:57.296Z,-0.40
2023-02-19T22:11:00.128Z,-0.38
2023-02-19T22:16:03.633Z,-0.33
2023-02-19T22:21:06.666Z,-0.27
2023-02-19T22:26:09.827Z,-0.25
2023-02-19T22:31:14.446Z,-0.21
2023-02-19T22:36:20.145Z,-0.19
2023-02-19T22:41:23.707Z,-0.16
2023-02-19T22:46:29.497Z,-0.13
2023-02-19T22:51:33.565Z,-0.10
2023-02-19T22:56:36.345Z,-0.11
2023-02-19T23:01:39.274Z,-0.14
2023-02-19T23:06:44.660Z,-0.17
2023-02-19T23:11:47.560Z,-0.19
2023-02-19T23:16:50.485Z,-0.20
2023-02-19T23:21:53.345Z,-0.19
2023-02-19T23:26:56.156Z,-0.14
2023-02-19T23:32:00.475Z,-0.09
2023-02-19T23:37:03.589Z,-0.04
2023-02-19T23:42:06.392Z,-0.03
2023-02-19T23:47:09.187Z,-0.09
2023-02-19T23:52:12.093Z,-0.19
2023-02-19T23:57:15.300Z,-0.27
